createdAt,value
2022-12-23T00:00:45.303Z,99921.78
2022-12-23T00:03:30.942Z,99932.81
2022-12-23T00:06:17.496Z,99930.22
2022-12-23T00:09:03.500Z,99937.13
2022-12-23T00:12:06.937Z,99939.59
2022-12-23T00:15:07.071Z,99940.41
2022-12-23T00:17:51.964Z,99934.59
2022-12-23T00:20:37.032Z,99933.28
2022-12-23T00:23:22.171Z,99927.47
2022-12-23T00:26:08.165Z,99935.88
2022-12-23T00:28:55.838Z,99941.00
2022-12-23T00:31:40.859Z,99943.94
2022-12-23T00:34:25.922Z,99947.41
2022-12-23T00:37:11.045Z,99954.03
2022-12-23T00:40:14.649Z,99949.56
2022-12-23T00:43:01.007Z,99947.91
2022-12-23T00:45:47.122Z,99943.78
2022-12-23T00:48:50.570Z,99945.59
2022-12-23T00:51:35.789Z,99942.81
2022-12-23T00:54:20.600Z,99942.81
2022-12-23T00:57:06.330Z,99947.09
2022-12-23T00:59:51.380Z,99948.75
2022-12-23T01:02:55.277Z,99954.88
2022-12-23T01:05:40.400Z,99960.81
2022-12-23T01:08:26.474Z,99963.78
2022-12-23T01:11:12.382Z,99963.91
2022-12-23T01:13:58.563Z,99972.34
2022-12-23T01:16:44.741Z,99975.81
2022-12-23T01:19:29.683Z,99983.75
2022-12-23T01:22:14.523Z,99982.59
2022-12-23T01:24:59.274Z,99978.47
2022-12-23T01:27:44.148Z,99979.44
2022-12-23T01:30:29.177Z,99977.13
2022-12-23T01:33:14.229Z,99979.97
2022-12-23T01:36:04.920Z,99983.44
2022-12-23T01:38:50.321Z,99981.44
2022-12-23T01:41:53.891Z,99983.53
2022-12-23T01:45:14.029Z,99985.38
2022-12-23T01:48:10.380Z,99997.13
2022-12-23T01:51:02.607Z,99995.97
2022-12-23T01:53:51.729Z,100002.03
2022-12-23T01:56:39.387Z,100008.84
2022-12-23T01:59:43.346Z,100007.00
2022-12-23T02:02:50.162Z,100020.56
2022-12-23T02:05:35.592Z,100019.53
2022-12-23T02:08:39.125Z,100022.53
2022-12-23T02:11:48.333Z,100019.06
2022-12-23T02:15:10.521Z,100018.41
2022-12-23T02:18:17.447Z,100018.91
2022-12-23T02:21:37.400Z,100016.25
2022-12-23T02:24:55.622Z,100017.72
2022-12-23T02:28:08.474Z,100028.81
2022-12-23T02:31:03.910Z,100033.38
2022-12-23T02:34:18.749Z,100048.91
2022-12-23T02:37:18.824Z,100044.13
2022-12-23T02:40:09.410Z,100042.97
2022-12-23T02:43:04.925Z,100057.00
2022-12-23T02:46:13.892Z,100050.22
2022-12-23T02:49:06.552Z,100052.53
2022-12-23T02:51:54.612Z,100062.28
2022-12-23T02:54:48.795Z,100051.69
2022-12-23T02:57:37.279Z,100055.31
2022-12-23T03:00:23.115Z,100064.63
2022-12-23T03:03:08.615Z,100054.00
2022-12-23T03:05:54.693Z,100061.09
2022-12-23T03:08:43.835Z,100070.69
2022-12-23T03:11:39.981Z,100067.34
2022-12-23T03:14:36.460Z,100065.53
2022-12-23T03:17:52.397Z,100068.16
2022-12-23T03:21:01.690Z,100067.16
2022-12-23T03:24:19.480Z,100066.19
2022-12-23T03:27:18.841Z,100054.28
2022-12-23T03:30:09.795Z,100061.72
2022-12-23T03:33:04.344Z,100060.25
2022-12-23T03:35:55.331Z,100066.38
2022-12-23T03:38:43.680Z,100072.34
2022-12-23T03:41:35.344Z,100074.31
2022-12-23T03:44:26.262Z,100073.78
2022-12-23T03:47:23.996Z,100080.41
2022-12-23T03:50:12.516Z,100077.75
2022-12-23T03:53:02.964Z,100073.78
2022-12-23T03:55:56.630Z,100079.75
2022-12-23T03:59:02.715Z,100083.91
2022-12-23T04:02:03.637Z,100077.63
2022-12-23T04:05:11.751Z,100085.25
2022-12-23T04:08:44.949Z,100090.03
2022-12-23T04:11:29.888Z,100085.59
2022-12-23T04:14:19.417Z,100084.66
2022-12-23T04:17:04.689Z,100086.78
2022-12-23T04:19:52.930Z,100082.84
2022-12-23T04:22:39.414Z,100087.31
2022-12-23T04:25:24.379Z,100100.53
2022-12-23T04:28:09.307Z,100091.13
2022-12-23T04:30:54.217Z,100083.00
2022-12-23T04:33:39.336Z,100089.75
2022-12-23T04:36:24.133Z,100088.78
2022-12-23T04:39:09.756Z,100086.47
2022-12-23T04:41:54.745Z,100089.28
2022-12-23T04:44:39.932Z,100106.66
2022-12-23T04:47:25.230Z,100098.72
2022-12-23T04:50:14.614Z,100094.41
2022-12-23T04:52:59.614Z,100096.22
2022-12-23T04:55:49.222Z,100097.03
2022-12-23T04:58:34.560Z,100098.69
2022-12-23T05:01:19.432Z,100102.50
2022-12-23T05:04:04.783Z,100098.34
2022-12-23T05:06:51.028Z,100106.66
2022-12-23T05:09:35.955Z,100105.63
2022-12-23T05:12:20.777Z,100097.22
2022-12-23T05:15:06.203Z,100102.34
2022-12-23T05:17:51.235Z,100093.41
2022-12-23T05:20:36.486Z,100098.72
2022-12-23T05:23:21.658Z,100098.22
2022-12-23T05:26:06.804Z,100097.56
2022-12-23T05:28:51.877Z,100099.38
2022-12-23T05:31:36.943Z,100111.25
2022-12-23T05:34:22.136Z,100111.25
2022-12-23T05:37:07.448Z,100112.91
2022-12-23T05:39:52.677Z,100109.63
2022-12-23T05:42:37.785Z,100115.56
2022-12-23T05:45:22.775Z,100117.22
2022-12-23T05:48:08.213Z,100118.22
2022-12-23T05:50:53.592Z,100125.16
2022-12-23T05:53:38.628Z,100126.44
2022-12-23T05:56:23.667Z,100122.31
2022-12-23T05:59:08.819Z,100128.94
2022-12-23T06:01:54.404Z,100134.06
2022-12-23T06:04:39.507Z,100121.00
2022-12-23T06:07:24.372Z,100131.09
2022-12-23T06:10:10.697Z,100138.00
2022-12-23T06:12:56.514Z,100137.19
2022-12-23T06:15:41.535Z,100136.50
2022-12-23T06:18:26.267Z,100136.03
2022-12-23T06:21:11.331Z,100129.75
2022-12-23T06:23:56.017Z,100134.22
2022-12-23T06:26:42.371Z,100132.72
2022-12-23T06:29:27.632Z,100127.78
2022-12-23T06:32:12.762Z,100126.31
2022-12-23T06:34:57.957Z,100125.16
2022-12-23T06:37:43.177Z,100121.69
2022-12-23T06:40:29.118Z,100122.97
2022-12-23T06:43:13.932Z,100128.59
2022-12-23T06:45:59.164Z,100141.81
2022-12-23T06:48:44.320Z,100141.03
2022-12-23T06:51:29.589Z,100139.34
2022-12-23T06:54:14.539Z,100146.31
2022-12-23T06:56:59.513Z,100136.88
2022-12-23T06:59:44.342Z,100138.03
2022-12-23T07:02:29.519Z,100145.16
2022-12-23T07:05:14.899Z,100147.63
2022-12-23T07:07:59.900Z,100154.06
2022-12-23T07:10:45.540Z,100172.88
2022-12-23T07:13:32.714Z,100183.13
2022-12-23T07:16:17.848Z,100199.81
2022-12-23T07:19:02.984Z,100216.50
2022-12-23T07:21:47.925Z,100217.63
2022-12-23T07:24:32.880Z,100222.13
2022-12-23T07:27:18.029Z,100219.47
2022-12-23T07:30:03.651Z,100215.81
2022-12-23T07:32:49.798Z,100220.97
2022-12-23T07:35:34.597Z,100224.59
2022-12-23T07:38:19.707Z,100221.94
2022-12-23T07:41:04.918Z,100219.47
2022-12-23T07:43:49.971Z,100225.56
2022-12-23T07:46:34.890Z,100221.44
2022-12-23T07:49:20.033Z,100227.41
2022-12-23T07:52:05.151Z,100234.16
2022-12-23T07:54:50.102Z,100235.81
2022-12-23T07:57:37.799Z,100233.16
2022-12-23T08:00:22.836Z,100233.16
2022-12-23T08:03:08.259Z,100241.78
2022-12-23T08:06:05.119Z,100235.47
2022-12-23T08:08:49.805Z,100232.19
2022-12-23T08:11:34.841Z,100231.03
2022-12-23T08:14:19.837Z,100223.44
2022-12-23T08:17:05.334Z,100221.44
2022-12-23T08:19:50.382Z,100214.53
2022-12-23T08:22:35.212Z,100215.50
2022-12-23T08:25:20.093Z,100212.84
2022-12-23T08:28:05.097Z,100214.34
2022-12-23T08:30:49.947Z,100211.38
2022-12-23T08:33:36.609Z,100206.09
2022-12-23T08:36:31.106Z,100203.78
2022-12-23T08:39:18.531Z,100202.78
2022-12-23T08:42:03.528Z,100209.06
2022-12-23T08:44:48.838Z,100208.06
2022-12-23T08:47:34.117Z,100209.88
2022-12-23T08:50:19.888Z,100217.16
2022-12-23T08:53:05.932Z,100206.28
2022-12-23T08:55:50.899Z,100206.91
2022-12-23T08:58:37.933Z,100204.59
2022-12-23T09:01:26.053Z,100212.22
2022-12-23T09:04:11.036Z,100209.38
2022-12-23T09:06:56.114Z,100212.72
2022-12-23T09:09:41.305Z,100211.38
2022-12-23T09:12:26.534Z,100204.28
2022-12-23T09:15:12.096Z,100205.13
2022-12-23T09:17:56.957Z,100201.97
2022-12-23T09:20:42.049Z,100202.63
2022-12-23T09:23:27.609Z,100185.78
2022-12-23T09:26:20.835Z,100177.84
2022-12-23T09:29:05.994Z,100172.75
2022-12-23T09:31:51.121Z,100169.28
2022-12-23T09:34:36.180Z,100180.66
2022-12-23T09:37:21.240Z,100175.72
2022-12-23T09:40:07.266Z,100162.81
2022-12-23T09:43:09.754Z,100159.34
2022-12-23T09:46:15.584Z,100153.22
2022-12-23T09:49:10.998Z,100145.16
2022-12-23T09:52:03.149Z,100144.16
2022-12-23T09:54:52.442Z,100133.56
2022-12-23T09:57:50.901Z,100135.06
2022-12-23T10:00:45.205Z,100147.44
2022-12-23T10:03:42.865Z,100145.31
2022-12-23T10:06:29.254Z,100136.88
2022-12-23T10:09:17.268Z,100141.50
2022-12-23T10:12:11.082Z,100135.22
2022-12-23T10:15:00.824Z,100125.13
2022-12-23T10:17:46.562Z,100114.25
2022-12-23T10:21:01.522Z,100106.81
2022-12-23T10:23:51.020Z,100101.84
2022-12-23T10:26:45.363Z,100102.50
2022-12-23T10:29:31.941Z,100083.22
2022-12-23T10:32:17.274Z,100085.84
2022-12-23T10:35:15.600Z,100081.06
2022-12-23T10:38:28.508Z,100067.84
2022-12-23T10:41:33.899Z,100055.63
2022-12-23T10:44:41.315Z,100052.31
2022-12-23T10:47:50.554Z,100050.16
2022-12-23T10:50:51.060Z,100041.91
2022-12-23T10:53:43.934Z,100037.28
2022-12-23T10:56:30.721Z,100037.78
2022-12-23T10:59:20.506Z,100031.34
2022-12-23T11:02:23.393Z,100024.41
2022-12-23T11:05:16.854Z,100025.09
2022-12-23T11:08:02.335Z,100030.38
2022-12-23T11:10:48.529Z,100020.25
2022-12-23T11:13:40.422Z,100026.91
2022-12-23T11:16:28.397Z,100014.00
2022-12-23T11:19:16.784Z,100011.38
2022-12-23T11:22:02.176Z,100007.91
2022-12-23T11:24:47.388Z,99989.06
2022-12-23T11:27:32.967Z,99988.88
2022-12-23T11:30:19.055Z,99989.38
2022-12-23T11:33:04.564Z,99982.00
2022-12-23T11:36:00.426Z,99974.53
2022-12-23T11:39:02.110Z,99969.44
2022-12-23T11:41:50.677Z,99968.09
2022-12-23T11:44:45.959Z,99973.22
2022-12-23T11:47:41.536Z,99969.25
2022-12-23T11:50:36.969Z,99960.66
2022-12-23T11:53:24.305Z,99944.50
2022-12-23T11:56:13.472Z,99921.88
2022-12-23T11:59:07.668Z,99908.81
2022-12-23T12:01:53.623Z,99895.91
2022-12-23T12:04:41.135Z,99892.13
2022-12-23T12:07:26.960Z,99885.06
2022-12-23T12:10:42.369Z,99874.66
2022-12-23T12:13:41.656Z,99875.00
2022-12-23T12:16:55.766Z,99870.53
2022-12-23T12:19:53.621Z,99870.72
2022-12-23T12:22:49.200Z,99868.75
2022-12-23T12:25:44.119Z,99859.81
2022-12-23T12:28:34.931Z,99847.63
2022-12-23T12:31:34.238Z,99833.25
2022-12-23T12:34:53.453Z,99826.78
2022-12-23T12:37:48.121Z,99820.00
2022-12-23T12:40:44.699Z,99813.88
2022-12-23T12:43:46.357Z,99819.66
2022-12-23T12:46:59.657Z,99801.16
2022-12-23T12:49:56.907Z,99797.06
2022-12-23T12:52:42.860Z,99781.69
2022-12-23T12:55:37.705Z,99766.69
2022-12-23T12:58:24.294Z,99753.16
2022-12-23T13:01:37.492Z,99754.34
2022-12-23T13:04:41.962Z,99741.81
2022-12-23T13:07:29.648Z,99725.50
2022-12-23T13:10:45.359Z,99759.84
2022-12-23T13:13:48.265Z,99776.34
2022-12-23T13:17:01.559Z,99746.97
2022-12-23T13:19:52.607Z,99779.81
2022-12-23T13:22:38.520Z,99732.44
2022-12-23T13:25:41.124Z,99718.34
2022-12-23T13:28:29.289Z,99714.09
2022-12-23T13:31:33.226Z,99701.16
2022-12-23T13:34:40.433Z,99689.47
2022-12-23T13:37:36.105Z,99687.13
2022-12-23T13:40:29.352Z,99670.81
2022-12-23T13:43:18.811Z,99671.97
2022-12-23T13:46:21.664Z,99658.97
2022-12-23T13:49:24.750Z,99656.31
2022-12-23T13:52:15.800Z,99654.66
2022-12-23T13:55:24.204Z,99654.31
2022-12-23T13:58:18.592Z,99651.53
2022-12-23T14:01:09.273Z,99651.81
2022-12-23T14:03:54.134Z,99659.91
2022-12-23T14:06:38.821Z,99652.44
2022-12-23T14:09:36.927Z,99642.06
2022-12-23T14:12:37.135Z,99633.31
2022-12-23T14:15:42.388Z,99638.69
2022-12-23T14:18:50.717Z,99635.91
2022-12-23T14:21:57.749Z,99633.06
2022-12-23T14:25:04.380Z,99632.09
2022-12-23T14:28:18.817Z,99615.41
2022-12-23T14:31:05.305Z,99603.03
2022-12-23T14:33:51.256Z,99603.84
2022-12-23T14:36:36.238Z,99606.13
2022-12-23T14:39:31.303Z,99611.88
2022-12-23T14:42:40.349Z,99619.81
2022-12-23T14:45:35.900Z,99611.72
2022-12-23T14:48:36.127Z,99595.66
2022-12-23T14:51:39.333Z,99593.84
2022-12-23T14:54:39.352Z,99602.59
2022-12-23T14:57:28.518Z,99599.63
2022-12-23T15:00:13.451Z,99598.59
2022-12-23T15:03:00.660Z,99602.88
2022-12-23T15:05:46.196Z,99597.06
2022-12-23T15:08:36.564Z,99586.13
2022-12-23T15:11:29.531Z,99597.47
2022-12-23T15:14:28.320Z,99600.75
2022-12-23T15:17:28.383Z,99597.50
2022-12-23T15:20:18.510Z,99591.94
2022-12-23T15:23:30.176Z,99603.19
2022-12-23T15:26:15.236Z,99607.53
2022-12-23T15:29:01.066Z,99609.09
2022-12-23T15:31:50.400Z,99621.41
2022-12-23T15:34:35.229Z,99623.88
2022-12-23T15:37:29.204Z,99621.41
2022-12-23T15:40:31.910Z,99619.50
2022-12-23T15:43:23.778Z,99618.38
2022-12-23T15:46:16.103Z,99639.25
2022-12-23T15:49:01.812Z,99633.81
2022-12-23T15:52:18.100Z,99627.88
2022-12-23T15:55:23.761Z,99639.50
2022-12-23T15:58:17.817Z,99630.84
2022-12-23T16:01:03.653Z,99625.69
2022-12-23T16:03:52.672Z,99624.25
2022-12-23T16:06:38.919Z,99619.88
2022-12-23T16:09:31.933Z,99627.66
2022-12-23T16:12:23.657Z,99617.44
2022-12-23T16:15:29.719Z,99615.91
2022-12-23T16:18:24.164Z,99614.41
2022-12-23T16:21:13.787Z,99618.72
2022-12-23T16:23:59.867Z,99621.06
2022-12-23T16:26:44.908Z,99628.56
2022-12-23T16:29:33.352Z,99637.47
2022-12-23T16:32:19.342Z,99640.38
2022-12-23T16:35:12.432Z,99637.13
2022-12-23T16:38:09.841Z,99649.41
2022-12-23T16:40:56.646Z,99660.19
2022-12-23T16:43:49.422Z,99677.94
2022-12-23T16:46:41.905Z,99687.59
2022-12-23T16:49:33.418Z,99676.03
2022-12-23T16:52:19.070Z,99655.06
2022-12-23T16:55:12.849Z,99661.94
2022-12-23T16:57:57.574Z,99657.41
2022-12-23T17:00:42.616Z,99681.50
2022-12-23T17:03:27.850Z,99669.56
2022-12-23T17:06:14.905Z,99677.09
2022-12-23T17:08:59.837Z,99677.25
2022-12-23T17:11:48.438Z,99689.47
2022-12-23T17:14:33.341Z,99690.03
2022-12-23T17:17:18.562Z,99696.75
2022-12-23T17:20:04.025Z,99704.13
2022-12-23T17:22:52.313Z,99711.31
2022-12-23T17:25:36.928Z,99707.84
2022-12-23T17:28:23.140Z,99721.75
2022-12-23T17:31:14.196Z,99723.97
2022-12-23T17:34:01.689Z,99715.97
2022-12-23T17:36:50.420Z,99725.56
2022-12-23T17:39:35.896Z,99738.41
2022-12-23T17:42:25.825Z,99732.25
2022-12-23T17:45:31.750Z,99740.13
2022-12-23T17:48:20.822Z,99736.53
2022-12-23T17:51:15.520Z,99742.59
2022-12-23T17:54:00.558Z,99735.78
2022-12-23T17:56:45.505Z,99737.22
2022-12-23T17:59:30.401Z,99737.22
2022-12-23T18:02:21.129Z,99733.28
2022-12-23T18:05:20.331Z,99734.88
2022-12-23T18:08:05.237Z,99737.94
2022-12-23T18:10:50.216Z,99745.91
2022-12-23T18:13:36.156Z,99750.00
2022-12-23T18:16:21.312Z,99750.03
2022-12-23T18:19:15.157Z,99745.31
2022-12-23T18:22:00.229Z,99760.16
2022-12-23T18:24:46.575Z,99760.03
2022-12-23T18:27:31.418Z,99766.47
2022-12-23T18:30:17.767Z,99774.44
2022-12-23T18:33:02.626Z,99768.06
2022-12-23T18:35:49.528Z,99782.84
2022-12-23T18:38:34.312Z,99769.19
2022-12-23T18:41:20.924Z,99772.06
2022-12-23T18:44:06.166Z,99777.38
2022-12-23T18:46:51.286Z,99774.16
2022-12-23T18:49:37.179Z,99773.88
2022-12-23T18:52:21.935Z,99773.81
2022-12-23T18:55:07.391Z,99771.91
2022-12-23T18:57:52.525Z,99783.66
2022-12-23T19:00:37.651Z,99780.31
2022-12-23T19:03:25.757Z,99792.47
2022-12-23T19:06:16.281Z,99788.59
2022-12-23T19:09:01.484Z,99789.16
2022-12-23T19:11:48.111Z,99791.38
2022-12-23T19:14:33.318Z,99791.56
2022-12-23T19:17:18.172Z,99783.28
2022-12-23T19:20:04.565Z,99799.38
2022-12-23T19:22:49.554Z,99793.84
2022-12-23T19:25:34.537Z,99791.09
2022-12-23T19:28:20.024Z,99794.22
2022-12-23T19:31:13.005Z,99809.50
2022-12-23T19:33:59.617Z,99800.53
2022-12-23T19:36:44.765Z,99799.06
2022-12-23T19:39:29.707Z,99798.06
2022-12-23T19:42:14.778Z,99816.00
2022-12-23T19:45:00.563Z,99816.13
2022-12-23T19:47:45.381Z,99824.44
2022-12-23T19:50:30.484Z,99839.31
2022-12-23T19:53:15.634Z,99857.88
2022-12-23T19:56:06.995Z,99857.25
2022-12-23T19:58:51.896Z,99854.88
2022-12-23T20:01:36.973Z,99863.78
2022-12-23T20:04:24.765Z,99866.94
2022-12-23T20:07:09.980Z,99881.88
2022-12-23T20:09:54.808Z,99888.47
2022-12-23T20:12:40.004Z,99882.09
2022-12-23T20:15:25.176Z,99900.41
2022-12-23T20:18:10.376Z,99902.59
2022-12-23T20:20:55.722Z,99895.72
2022-12-23T20:23:40.951Z,99895.41
2022-12-23T20:26:27.561Z,99900.00
2022-12-23T20:29:12.568Z,99903.56
2022-12-23T20:31:57.601Z,99900.34
2022-12-23T20:34:42.462Z,99910.34
2022-12-23T20:37:27.592Z,99919.94
2022-12-23T20:40:14.462Z,99927.91
2022-12-23T20:42:59.505Z,99924.13
2022-12-23T20:45:46.197Z,99923.22
2022-12-23T20:48:34.497Z,99928.28
2022-12-23T20:51:23.697Z,99934.22
2022-12-23T20:54:09.154Z,99942.75
2022-12-23T20:56:54.405Z,99946.09
2022-12-23T20:59:39.469Z,99936.25
2022-12-23T21:02:25.229Z,99948.03
2022-12-23T21:05:10.248Z,99949.59
2022-12-23T21:07:55.391Z,99952.53
2022-12-23T21:10:40.533Z,99967.25
2022-12-23T21:13:25.561Z,99978.84
2022-12-23T21:16:12.876Z,99982.25
2022-12-23T21:18:58.869Z,99976.75
2022-12-23T21:21:44.499Z,99975.22
2022-12-23T21:24:29.610Z,99981.72
2022-12-23T21:27:14.783Z,99999.19
2022-12-23T21:29:59.898Z,99992.06
2022-12-23T21:32:44.630Z,99999.91
2022-12-23T21:35:29.504Z,100004.75
2022-12-23T21:38:14.665Z,100007.13
2022-12-23T21:41:01.671Z,100028.34
2022-12-23T21:43:47.981Z,100024.69
2022-12-23T21:46:33.190Z,100025.41
2022-12-23T21:49:19.502Z,100027.81
2022-12-23T21:52:04.500Z,100027.16
2022-12-23T21:54:49.626Z,100028.63
2022-12-23T21:57:34.795Z,100031.16
2022-12-23T22:00:20.067Z,100035.63
2022-12-23T22:03:05.118Z,100043.88
2022-12-23T22:05:50.114Z,100041.69
2022-12-23T22:08:35.428Z,100049.28
2022-12-23T22:11:23.220Z,100038.78
2022-12-23T22:14:12.310Z,100053.88
2022-12-23T22:16:57.418Z,100051.69
2022-12-23T22:19:42.391Z,100065.31
2022-12-23T22:22:27.485Z,100076.66
2022-12-23T22:25:12.576Z,100070.97
2022-12-23T22:27:57.400Z,100075.72
2022-12-23T22:30:42.511Z,100090.53
2022-12-23T22:33:27.654Z,100086.78
2022-12-23T22:36:14.968Z,100100.22
2022-12-23T22:39:01.824Z,100102.88
2022-12-23T22:41:46.917Z,100110.56
2022-12-23T22:44:31.970Z,100105.41
2022-12-23T22:47:16.985Z,100117.19
2022-12-23T22:50:02.175Z,100125.41
2022-12-23T22:52:47.209Z,100125.78
2022-12-23T22:55:32.386Z,100127.81
2022-12-23T22:58:17.509Z,100120.06
2022-12-23T23:01:02.617Z,100124.22
2022-12-23T23:03:50.879Z,100125.06
2022-12-23T23:06:38.378Z,100133.50
2022-12-23T23:09:23.248Z,100139.94
2022-12-23T23:12:08.322Z,100146.63
2022-12-23T23:14:53.278Z,100126.25
2022-12-23T23:17:38.360Z,100140.97
2022-12-23T23:20:23.525Z,100148.56
2022-12-23T23:23:08.449Z,100151.66
2022-12-23T23:25:53.514Z,100151.31
2022-12-23T23:28:39.850Z,100160.63
2022-12-23T23:31:41.928Z,100154.50
2022-12-23T23:34:28.143Z,100157.22
2022-12-23T23:37:14.026Z,100164.72
2022-12-23T23:39:59.046Z,100163.06
2022-12-23T23:42:44.222Z,100159.22
2022-12-23T23:45:30.153Z,100157.75
2022-12-23T23:48:16.038Z,100165.50
2022-12-23T23:51:05.944Z,100160.50
2022-12-23T23:53:50.989Z,100180.41
2022-12-23T23:56:38.555Z,100187.75
2022-12-23T23:59:23.894Z,100196.06
